createdAt,value
2022-09-15T00:02:37.882Z,0.29
2022-09-15T00:05:37.789Z,0.45
2022-09-15T00:08:37.827Z,0.46
2022-09-15T00:11:37.816Z,0.64
2022-09-15T00:14:37.783Z,0.39
2022-09-15T00:17:37.787Z,0.48
2022-09-15T00:20:37.880Z,0.92
2022-09-15T00:23:37.839Z,0.73
2022-09-15T00:26:37.849Z,0.66
2022-09-15T00:29:37.851Z,0.85
2022-09-15T00:32:37.832Z,0.53
2022-09-15T00:35:37.872Z,0.31
2022-09-15T00:38:37.843Z,0.78
2022-09-15T00:41:37.824Z,0.49
2022-09-15T00:44:37.809Z,0.47
2022-09-15T00:47:37.846Z,0.7
2022-09-15T00:50:37.804Z,0.69
2022-09-15T00:53:37.843Z,0.51
2022-09-15T00:56:37.840Z,0.5
2022-09-15T00:59:37.823Z,0.81
2022-09-15T01:02:37.924Z,0.68
2022-09-15T01:05:37.842Z,0.56
2022-09-15T01:08:37.822Z,0.66
2022-09-15T01:11:37.856Z,0.73
2022-09-15T01:14:37.862Z,0.5
2022-09-15T01:17:37.813Z,0.68
2022-09-15T01:20:37.854Z,0.66
2022-09-15T01:23:37.837Z,0.64
2022-09-15T01:26:37.926Z,1.03
2022-09-15T01:29:37.887Z,0.82
2022-09-15T01:32:37.883Z,0.6
2022-09-15T01:35:37.879Z,0.69
2022-09-15T01:38:37.894Z,0.44
2022-09-15T01:41:37.862Z,0.77
2022-09-15T01:44:37.853Z,0.53
2022-09-15T01:47:37.877Z,0.62
2022-09-15T01:50:37.918Z,0.67
2022-09-15T01:53:37.883Z,0.61
2022-09-15T01:56:37.880Z,0.61
2022-09-15T01:59:37.945Z,1
2022-09-15T02:02:37.980Z,0.51
2022-09-15T02:05:37.982Z,0.64
2022-09-15T02:08:37.904Z,0.57
2022-09-15T02:11:37.899Z,0.54
2022-09-15T02:14:37.927Z,0.74
2022-09-15T02:17:37.898Z,0.74
2022-09-15T02:20:37.912Z,0.7
2022-09-15T02:23:37.900Z,0.76
2022-09-15T02:26:37.922Z,0.58
2022-09-15T02:29:37.908Z,0.58
2022-09-15T02:32:37.969Z,0.61
2022-09-15T02:35:37.936Z,0.72
2022-09-15T02:38:37.912Z,0.45
2022-09-15T02:41:37.949Z,0.61
2022-09-15T02:44:37.914Z,0.58
2022-09-15T02:47:37.937Z,0.41
2022-09-15T02:50:37.964Z,0.12
2022-09-15T02:53:37.977Z,0.3
2022-09-15T02:56:37.917Z,0.64
2022-09-15T02:59:37.946Z,0.36
2022-09-15T03:02:37.963Z,0.65
2022-09-15T03:05:37.968Z,0.21
2022-09-15T03:08:37.969Z,0.62
2022-09-15T03:11:37.982Z,0.49
2022-09-15T03:14:37.937Z,0.28
2022-09-15T03:17:38.002Z,0.26
2022-09-15T03:20:37.962Z,0.37
2022-09-15T03:23:37.993Z,0.66
2022-09-15T03:26:38.003Z,0.53
2022-09-15T03:29:37.992Z,0.93
2022-09-15T03:32:37.968Z,0.8
2022-09-15T03:35:37.962Z,0.57
2022-09-15T03:38:37.989Z,0.42
2022-09-15T03:41:37.953Z,0.41
2022-09-15T03:44:38.015Z,0.61
2022-09-15T03:47:38.058Z,0.77
2022-09-15T03:50:38.059Z,0.7
2022-09-15T03:53:37.969Z,0.61
2022-09-15T03:56:38.001Z,0.39
2022-09-15T03:59:38.004Z,0.5
2022-09-15T04:02:38.002Z,0.61
2022-09-15T04:05:38.005Z,0.66
2022-09-15T04:08:38.003Z,0.62
2022-09-15T04:11:37.997Z,0.54
2022-09-15T04:14:37.999Z,0.79
2022-09-15T04:17:38.028Z,0.4
2022-09-15T04:20:37.984Z,0.6
2022-09-15T04:23:38.022Z,0.3
2022-09-15T04:26:38.027Z,0.66
2022-09-15T04:29:38.012Z,0.68
2022-09-15T04:32:38.039Z,0.67
2022-09-15T04:35:38.023Z,0.55
2022-09-15T04:38:38.014Z,0.4
2022-09-15T04:41:38.034Z,0.38
2022-09-15T04:44:38.035Z,0.47
2022-09-15T04:47:38.037Z,0.71
2022-09-15T04:50:38.028Z,0.72
2022-09-15T04:53:38.039Z,1.1
2022-09-15T04:56:38.084Z,0.67
2022-09-15T04:59:38.036Z,0.94
2022-09-15T05:02:38.027Z,0.62
2022-09-15T05:05:38.063Z,0.81
2022-09-15T05:08:38.058Z,0.85
2022-09-15T05:11:38.058Z,0.75
2022-09-15T05:14:38.054Z,0.57
2022-09-15T05:17:38.069Z,0.79
2022-09-15T05:20:38.086Z,0.6
2022-09-15T05:23:38.062Z,0.73
2022-09-15T05:26:38.124Z,0.76
2022-09-15T05:29:38.119Z,1.07
2022-09-15T05:32:38.084Z,0.77
2022-09-15T05:35:38.110Z,0.9
2022-09-15T05:38:38.068Z,0.94
2022-09-15T05:41:38.082Z,0.76
2022-09-15T05:44:38.103Z,0.91
2022-09-15T05:47:38.098Z,0.9
2022-09-15T05:50:38.079Z,0.78
2022-09-15T05:53:38.111Z,0.58
2022-09-15T05:56:38.427Z,0.45
2022-09-15T05:59:38.079Z,0.77
2022-09-15T06:02:38.097Z,1.01
2022-09-15T06:05:38.134Z,0.44
2022-09-15T06:08:39.662Z,0.65
2022-09-15T06:11:38.119Z,0.51
2022-09-15T06:14:38.085Z,0.88
2022-09-15T06:17:38.128Z,0.72
2022-09-15T06:20:38.114Z,0.54
2022-09-15T06:23:38.141Z,0.83
2022-09-15T06:26:38.139Z,0.6
2022-09-15T06:29:38.134Z,0.81
2022-09-15T06:32:38.110Z,0.72
2022-09-15T06:35:38.173Z,0.95
2022-09-15T06:38:38.123Z,0.8
2022-09-15T06:41:58.715Z,0.81
2022-09-15T06:44:38.114Z,0.82
2022-09-15T06:47:38.153Z,0.83
2022-09-15T06:50:38.139Z,1
2022-09-15T06:53:38.157Z,0.86
2022-09-15T06:56:38.528Z,1.08
2022-09-15T06:59:38.142Z,0.99
2022-09-15T07:02:38.183Z,1.25
2022-09-15T07:05:38.175Z,0.82
2022-09-15T07:08:38.130Z,0.45
2022-09-15T07:11:38.168Z,0.9
2022-09-15T07:14:38.143Z,0.82
2022-09-15T07:17:38.159Z,0.77
2022-09-15T07:20:38.134Z,0.81
2022-09-15T07:23:38.165Z,0.88
2022-09-15T07:26:38.192Z,0.96
2022-09-15T07:29:38.153Z,0.71
2022-09-15T07:32:38.168Z,0.65
2022-09-15T07:35:38.199Z,0.76
2022-09-15T07:38:38.216Z,0.72
2022-09-15T07:41:38.166Z,0.58
2022-09-15T07:44:38.145Z,0.75
2022-09-15T07:47:38.177Z,0.84
2022-09-15T07:50:38.183Z,0.51
2022-09-15T07:53:38.239Z,0.82
2022-09-15T07:56:38.203Z,0.51
2022-09-15T07:59:41.075Z,0.9
2022-09-15T08:02:38.215Z,1.06
2022-09-15T08:05:40.370Z,0.49
2022-09-15T08:08:38.184Z,0.67
2022-09-15T08:11:38.199Z,0.47
2022-09-15T08:14:38.209Z,0.81
2022-09-15T08:17:38.211Z,0.76
2022-09-15T08:20:38.209Z,0.99
2022-09-15T08:23:38.214Z,0.98
2022-09-15T08:26:38.204Z,1.12
2022-09-15T08:29:38.240Z,1.12
2022-09-15T08:32:38.214Z,1.17
2022-09-15T08:35:38.234Z,0.69
2022-09-15T08:38:38.193Z,0.79
2022-09-15T08:41:38.218Z,0.96
2022-09-15T08:44:38.208Z,0.67
2022-09-15T08:47:38.229Z,0.62
2022-09-15T08:50:38.270Z,0.76
2022-09-15T08:53:38.209Z,0.41
2022-09-15T08:56:38.249Z,0.91
2022-09-15T08:59:38.258Z,0.64
2022-09-15T09:02:38.301Z,1.07
2022-09-15T09:05:38.246Z,1.25
2022-09-15T09:08:38.261Z,1.07
2022-09-15T09:11:38.254Z,0.59
2022-09-15T09:14:38.256Z,0.49
2022-09-15T09:17:38.251Z,0.79
2022-09-15T09:20:38.245Z,0.94
2022-09-15T09:23:38.256Z,0.96
2022-09-15T09:26:38.264Z,1.36
2022-09-15T09:29:38.294Z,0.61
2022-09-15T09:32:38.300Z,1.24
2022-09-15T09:35:38.283Z,0.8
2022-09-15T09:38:38.283Z,1.28
2022-09-15T09:41:38.290Z,1.43
2022-09-15T09:44:38.289Z,1.22
2022-09-15T09:47:38.270Z,0.84
2022-09-15T09:50:38.320Z,1.37
2022-09-15T09:53:38.307Z,1.05
2022-09-15T09:56:38.294Z,0.89
2022-09-15T09:59:38.294Z,0.76
2022-09-15T10:02:38.298Z,0.82
2022-09-15T10:05:38.310Z,1.37
2022-09-15T10:08:38.336Z,0.96
2022-09-15T10:11:38.298Z,0.69
2022-09-15T10:14:38.318Z,1.25
2022-09-15T10:17:38.285Z,0.79
2022-09-15T10:20:38.310Z,0.74
2022-09-15T10:23:38.326Z,0.81
2022-09-15T10:26:38.316Z,0.78
2022-09-15T10:29:38.321Z,0.99
2022-09-15T10:32:38.311Z,1.07
2022-09-15T10:35:38.334Z,1
2022-09-15T10:38:38.332Z,1.2
2022-09-15T10:41:38.360Z,1.45
2022-09-15T10:44:38.348Z,1.36
2022-09-15T10:47:38.322Z,1.31
2022-09-15T10:50:38.356Z,0.97
2022-09-15T10:53:38.345Z,1.04
2022-09-15T10:56:38.389Z,1.13
2022-09-15T10:59:38.351Z,0.76
2022-09-15T11:02:38.345Z,1.09
2022-09-15T11:05:38.372Z,1.06
2022-09-15T11:08:38.330Z,0.91
2022-09-15T11:11:38.363Z,0.9
2022-09-15T11:14:38.344Z,0.89
2022-09-15T11:17:38.349Z,0.69
2022-09-15T11:20:38.328Z,0.41
2022-09-15T11:23:38.360Z,0.77
2022-09-15T11:26:38.360Z,0.39
2022-09-15T11:29:38.353Z,0.7
2022-09-15T11:32:38.383Z,1.17
2022-09-15T11:35:38.351Z,2.06
2022-09-15T11:38:38.394Z,1.84
2022-09-15T11:41:38.386Z,0.66
2022-09-15T11:44:38.384Z,2.4
2022-09-15T11:47:38.360Z,1.16
2022-09-15T11:50:38.408Z,1.2
2022-09-15T11:53:38.360Z,1.18
2022-09-15T11:56:38.395Z,0.7
2022-09-15T11:59:38.389Z,1.25
2022-09-15T12:02:38.469Z,0.94
2022-09-15T12:05:38.420Z,1.05
2022-09-15T12:08:38.396Z,1
2022-09-15T12:11:38.505Z,1.21
2022-09-15T12:14:38.413Z,1.28
2022-09-15T12:17:38.425Z,1.26
2022-09-15T12:20:38.419Z,1.56
2022-09-15T12:23:38.424Z,1.73
2022-09-15T12:26:38.403Z,1.8
2022-09-15T12:29:41.107Z,1.53
2022-09-15T12:32:38.459Z,1.76
2022-09-15T12:35:38.387Z,1.77
2022-09-15T12:38:38.446Z,1.46
2022-09-15T12:41:38.460Z,1.33
2022-09-15T12:44:38.443Z,1.25
2022-09-15T12:47:38.456Z,1.24
2022-09-15T12:50:38.460Z,1.3
2022-09-15T12:53:38.677Z,1.52
2022-09-15T12:56:38.493Z,1.16
2022-09-15T12:59:38.432Z,1.06
2022-09-15T13:02:38.563Z,0.96
2022-09-15T13:05:39.045Z,1.15
2022-09-15T13:08:38.457Z,1.54
2022-09-15T13:11:38.655Z,1.5
2022-09-15T13:14:38.494Z,1.39
2022-09-15T13:17:38.477Z,1.55
2022-09-15T13:20:38.485Z,1.29
2022-09-15T13:23:38.470Z,1.18
2022-09-15T13:26:38.472Z,1
2022-09-15T13:29:38.456Z,1.27
2022-09-15T13:32:38.480Z,1.16
2022-09-15T13:35:38.734Z,1.01
2022-09-15T13:38:38.475Z,1.17
2022-09-15T13:41:38.510Z,1.16
2022-09-15T13:44:38.485Z,0.99
2022-09-15T13:47:38.500Z,1.06
2022-09-15T13:50:38.518Z,1.06
2022-09-15T13:53:38.488Z,0.81
2022-09-15T13:56:38.503Z,0.84
2022-09-15T13:59:38.459Z,0.99
2022-09-15T14:02:38.562Z,0.78
2022-09-15T14:05:38.511Z,0.86
2022-09-15T14:08:38.518Z,0.77
2022-09-15T14:11:38.658Z,0.87
2022-09-15T14:14:38.530Z,0.8
2022-09-15T14:17:38.565Z,0.95
2022-09-15T14:20:38.502Z,0.74
2022-09-15T14:23:38.552Z,0.92
2022-09-15T14:26:38.505Z,1.11
2022-09-15T14:29:38.544Z,0.79
2022-09-15T14:32:38.568Z,0.84
2022-09-15T14:35:38.571Z,0.97
2022-09-15T14:38:38.585Z,0.84
2022-09-15T14:41:38.549Z,1.07
2022-09-15T14:47:38.550Z,0.75
2022-09-15T14:50:38.534Z,0.68
2022-09-15T14:53:38.575Z,0.87
2022-09-15T14:56:38.596Z,0.46
2022-09-15T14:59:38.566Z,0.84
2022-09-15T15:02:38.607Z,0.64
2022-09-15T15:05:38.599Z,0.59
2022-09-15T15:08:38.567Z,0.72
2022-09-15T15:11:38.589Z,0.53
2022-09-15T15:14:38.542Z,0.7
2022-09-15T15:17:38.570Z,1.06
2022-09-15T15:20:38.569Z,0.9
2022-09-15T15:23:39.311Z,0.77
2022-09-15T15:26:38.590Z,0.99
2022-09-15T15:29:38.586Z,1.01
2022-09-15T15:32:38.561Z,1.02
2022-09-15T15:35:38.588Z,0.99
2022-09-15T15:38:38.598Z,0.97
2022-09-15T15:41:38.605Z,0.84
2022-09-15T15:44:38.578Z,0.98
2022-09-15T15:47:38.607Z,1.06
2022-09-15T15:50:38.606Z,0.98
2022-09-15T15:53:38.620Z,1.15
2022-09-15T15:56:38.643Z,0.93
2022-09-15T15:59:38.602Z,1.1
2022-09-15T16:02:38.595Z,1.12
2022-09-15T16:05:38.676Z,1.36
2022-09-15T16:08:38.623Z,1.11
2022-09-15T16:11:38.644Z,1.04
2022-09-15T16:14:38.675Z,1.09
2022-09-15T16:17:40.872Z,1.29
2022-09-15T16:20:38.647Z,1.32
2022-09-15T16:23:38.591Z,1.21
2022-09-15T16:26:38.639Z,1.05
2022-09-15T16:29:38.654Z,1.27
2022-09-15T16:32:38.611Z,0.88
2022-09-15T16:35:38.697Z,1.09
2022-09-15T16:38:38.584Z,1.18
2022-09-15T16:41:39.462Z,1.03
2022-09-15T16:44:38.611Z,0.92
2022-09-15T16:47:38.651Z,0.9
2022-09-15T16:50:40.115Z,0.82
2022-09-15T16:53:38.639Z,1.16
2022-09-15T16:56:38.664Z,0.96
2022-09-15T16:59:41.150Z,0.98
2022-09-15T17:02:38.645Z,1.08
2022-09-15T17:05:38.694Z,0.87
2022-09-15T17:08:38.701Z,0.84
2022-09-15T17:11:38.650Z,0.84
2022-09-15T17:14:38.674Z,0.77
2022-09-15T17:17:38.659Z,0.84
2022-09-15T17:20:39.261Z,0.77
2022-09-15T17:23:38.695Z,0.86
2022-09-15T17:26:38.674Z,0.84
2022-09-15T17:29:38.722Z,0.86
2022-09-15T17:32:38.715Z,0.7
2022-09-15T17:35:38.702Z,0.57
2022-09-15T17:38:38.707Z,0.93
2022-09-15T17:41:38.716Z,0.71
2022-09-15T17:44:38.679Z,0.55
2022-09-15T17:47:38.676Z,0.48
2022-09-15T17:50:38.755Z,0.71
2022-09-15T17:53:38.775Z,0.68
2022-09-15T17:56:38.707Z,0.56
2022-09-15T17:59:38.685Z,0.56
2022-09-15T18:02:38.722Z,0.71
2022-09-15T18:05:38.721Z,0.6
2022-09-15T18:08:38.705Z,0.52
2022-09-15T18:11:38.740Z,0.75
2022-09-15T18:14:38.714Z,0.59
2022-09-15T18:17:38.736Z,0.69
2022-09-15T18:20:38.706Z,0.75
2022-09-15T18:23:38.717Z,0.74
2022-09-15T18:26:38.704Z,0.56
2022-09-15T18:29:38.761Z,0.75
2022-09-15T18:32:38.715Z,0.68
2022-09-15T18:35:38.725Z,0.77
2022-09-15T18:38:38.747Z,0.73
2022-09-15T18:41:38.809Z,0.59
2022-09-15T18:44:38.715Z,0.73
2022-09-15T18:47:38.765Z,0.62
2022-09-15T18:50:38.754Z,0.53
2022-09-15T18:53:38.791Z,0.86
2022-09-15T18:56:38.771Z,0.51
2022-09-15T18:59:38.752Z,0.44
2022-09-15T19:02:38.859Z,0.56
2022-09-15T19:05:38.806Z,0.46
2022-09-15T19:08:38.772Z,0.51
2022-09-15T19:11:38.795Z,0.43
2022-09-15T19:14:39.370Z,0.73
2022-09-15T19:17:38.850Z,0.5
2022-09-15T19:20:38.815Z,0.61
2022-09-15T19:23:38.774Z,0.65
2022-09-15T19:26:38.840Z,0.47
2022-09-15T19:29:38.750Z,0.81
2022-09-15T19:32:38.814Z,0.47
2022-09-15T19:35:38.801Z,0.49
2022-09-15T19:38:38.835Z,0.49
2022-09-15T19:41:38.834Z,0.52
2022-09-15T19:44:38.786Z,0.36
2022-09-15T19:47:38.791Z,0.39
2022-09-15T19:50:38.801Z,0.43
2022-09-15T19:53:38.777Z,0.32
2022-09-15T19:56:38.811Z,0.51
2022-09-15T19:59:38.814Z,0.51
2022-09-15T20:02:38.836Z,0.45
2022-09-15T20:05:38.810Z,0.55
2022-09-15T20:08:38.781Z,0.44
2022-09-15T20:11:38.841Z,0.49
2022-09-15T20:14:38.830Z,0.35
2022-09-15T20:17:38.890Z,0.24
2022-09-15T20:20:38.796Z,0.35
2022-09-15T20:23:38.807Z,0.4
2022-09-15T20:26:38.851Z,0.36
2022-09-15T20:29:38.822Z,0.24
2022-09-15T20:32:38.833Z,0.35
2022-09-15T20:35:38.809Z,0.22
2022-09-15T20:38:38.835Z,0.31
2022-09-15T20:41:38.825Z,0.52
2022-09-15T20:44:38.827Z,0.34
2022-09-15T20:47:38.840Z,0.36
2022-09-15T20:50:38.822Z,0.35
2022-09-15T20:53:38.882Z,0.52
2022-09-15T20:56:38.845Z,0.31
2022-09-15T20:59:38.841Z,0.39
2022-09-15T21:02:38.880Z,0.45
2022-09-15T21:05:38.898Z,0.4
2022-09-15T21:08:38.845Z,0.48
2022-09-15T21:11:38.874Z,0.43
2022-09-15T21:14:38.853Z,0.43
2022-09-15T21:17:38.853Z,0.21
2022-09-15T21:20:38.864Z,0.34
2022-09-15T21:23:38.841Z,0.28
2022-09-15T21:26:38.916Z,0.23
2022-09-15T21:29:38.849Z,0.42
2022-09-15T21:32:38.886Z,0.26
2022-09-15T21:35:38.910Z,0.34
2022-09-15T21:38:38.881Z,0.38
2022-09-15T21:41:38.912Z,0.4
2022-09-15T21:44:38.887Z,0.38
2022-09-15T21:47:39.029Z,0.61
2022-09-15T21:50:38.864Z,0.41
2022-09-15T21:53:38.907Z,0.55
2022-09-15T21:56:38.881Z,0.44
2022-09-15T21:59:38.937Z,0.49
2022-09-15T22:02:38.912Z,0.49
2022-09-15T22:05:38.905Z,0.47
2022-09-15T22:08:38.919Z,0.57
2022-09-15T22:11:38.886Z,0.61
2022-09-15T22:14:38.900Z,0.67
2022-09-15T22:17:38.937Z,0.57
2022-09-15T22:20:38.895Z,0.69
2022-09-15T22:23:38.930Z,0.83
2022-09-15T22:26:38.929Z,0.61
2022-09-15T22:29:38.950Z,0.74
2022-09-15T22:32:38.946Z,0.83
2022-09-15T22:35:38.907Z,0.61
2022-09-15T22:38:38.940Z,0.6
2022-09-15T22:41:38.914Z,0.57
2022-09-15T22:44:38.967Z,0.81
2022-09-15T22:47:38.972Z,0.66
2022-09-15T22:50:38.947Z,0.68
2022-09-15T22:53:38.942Z,0.6
2022-09-15T22:56:38.947Z,0.89
2022-09-15T22:59:38.976Z,0.58
2022-09-15T23:02:38.940Z,0.75
2022-09-15T23:05:38.956Z,0.86
2022-09-15T23:08:38.967Z,0.78
2022-09-15T23:11:38.967Z,0.79
2022-09-15T23:14:38.969Z,0.48
2022-09-15T23:17:38.958Z,0.64
2022-09-15T23:20:38.931Z,0.82
2022-09-15T23:23:38.975Z,0.56
2022-09-15T23:26:38.961Z,0.66
2022-09-15T23:29:38.984Z,0.48
2022-09-15T23:32:38.989Z,0.66
2022-09-15T23:35:38.949Z,0.73
2022-09-15T23:38:38.992Z,0.44
2022-09-15T23:41:38.977Z,0.44
2022-09-15T23:44:39.023Z,0.58
2022-09-15T23:47:38.978Z,0.62
2022-09-15T23:50:38.991Z,0.53
2022-09-15T23:53:38.989Z,0.53
2022-09-15T23:56:39.002Z,0.67
2022-09-15T23:59:38.992Z,0.63
